sensor_id;sensor_type;location;lat;lon;timestamp;pressure;altitude;pressure_sealevel;temperature;humidity
76827;BME280;65788;52.284;20.890;2023-07-29T00:02:11;99660.81;;;22.73;54.44
76827;BME280;65788;52.284;20.890;2023-07-29T00:04:37;99663.65;;;22.73;54.45
76827;BME280;65788;52.284;20.890;2023-07-29T00:07:04;99665.21;;;22.73;54.46
76827;BME280;65788;52.284;20.890;2023-07-29T00:09:31;99666.15;;;22.72;54.47
76827;BME280;65788;52.284;20.890;2023-07-29T00:11:58;99667.25;;;22.70;54.51
76827;BME280;65788;52.284;20.890;2023-07-29T00:14:24;99668.66;;;22.72;54.48
76827;BME280;65788;52.284;20.890;2023-07-29T00:16:51;99670.43;;;22.70;54.52
76827;BME280;65788;52.284;20.890;2023-07-29T00:19:18;99674.25;;;22.72;54.46
76827;BME280;65788;52.284;20.890;2023-07-29T00:21:44;99678.86;;;22.72;54.46
76827;BME280;65788;52.284;20.890;2023-07-29T00:24:11;99683.33;;;22.71;54.48
76827;BME280;65788;52.284;20.890;2023-07-29T00:26:38;99686.50;;;22.71;54.48
76827;BME280;65788;52.284;20.890;2023-07-29T00:29:04;99684.61;;;22.71;54.47
76827;BME280;65788;52.284;20.890;2023-07-29T00:31:31;99684.30;;;22.70;54.47
76827;BME280;65788;52.284;20.890;2023-07-29T00:33:58;99686.98;;;22.69;54.49
76827;BME280;65788;52.284;20.890;2023-07-29T00:36:24;99684.04;;;22.70;54.47
76827;BME280;65788;52.284;20.890;2023-07-29T00:38:51;99686.68;;;22.68;54.55
76827;BME280;65788;52.284;20.890;2023-07-29T00:41:21;99689.20;;;22.68;54.54
76827;BME280;65788;52.284;20.890;2023-07-29T00:43:49;99688.84;;;22.66;54.63
76827;BME280;65788;52.284;20.890;2023-07-29T00:46:16;99689.41;;;22.67;54.61
76827;BME280;65788;52.284;20.890;2023-07-29T00:48:43;99692.48;;;22.68;54.58
76827;BME280;65788;52.284;20.890;2023-07-29T00:51:10;99692.51;;;22.65;54.63
76827;BME280;65788;52.284;20.890;2023-07-29T00:53:37;99688.90;;;22.66;54.63
76827;BME280;65788;52.284;20.890;2023-07-29T00:56:04;99690.69;;;22.66;54.63
76827;BME280;65788;52.284;20.890;2023-07-29T00:58:31;99692.46;;;22.66;54.63
76827;BME280;65788;52.284;20.890;2023-07-29T01:00:57;99687.98;;;22.65;54.69
76827;BME280;65788;52.284;20.890;2023-07-29T01:03:24;99692.21;;;22.64;54.69
76827;BME280;65788;52.284;20.890;2023-07-29T01:06:01;99697.63;;;22.64;54.71
76827;BME280;65788;52.284;20.890;2023-07-29T01:08:50;99695.41;;;22.65;54.68
76827;BME280;65788;52.284;20.890;2023-07-29T01:14:02;99700.74;;;22.64;54.71
76827;BME280;65788;52.284;20.890;2023-07-29T01:16:34;99702.36;;;22.62;54.70
76827;BME280;65788;52.284;20.890;2023-07-29T01:19:05;99698.46;;;22.63;54.66
76827;BME280;65788;52.284;20.890;2023-07-29T01:21:35;99703.70;;;22.63;54.68
76827;BME280;65788;52.284;20.890;2023-07-29T01:24:04;99705.36;;;22.63;54.67
76827;BME280;65788;52.284;20.890;2023-07-29T01:26:31;99706.95;;;22.64;54.64
76827;BME280;65788;52.284;20.890;2023-07-29T01:28:57;99707.77;;;22.63;54.69
76827;BME280;65788;52.284;20.890;2023-07-29T01:31:34;99712.05;;;22.63;54.70
76827;BME280;65788;52.284;20.890;2023-07-29T01:34:18;99712.95;;;22.63;54.68
76827;BME280;65788;52.284;20.890;2023-07-29T01:36:51;99712.34;;;22.62;54.66
76827;BME280;65788;52.284;20.890;2023-07-29T01:39:20;99710.95;;;22.63;54.65
76827;BME280;65788;52.284;20.890;2023-07-29T01:41:50;99713.02;;;22.63;54.67
76827;BME280;65788;52.284;20.890;2023-07-29T01:44:18;99709.27;;;22.62;54.66
76827;BME280;65788;52.284;20.890;2023-07-29T01:46:46;99711.10;;;22.61;54.70
76827;BME280;65788;52.284;20.890;2023-07-29T01:49:13;99712.95;;;22.61;54.69
76827;BME280;65788;52.284;20.890;2023-07-29T01:51:39;99716.23;;;22.62;54.70
76827;BME280;65788;52.284;20.890;2023-07-29T01:54:06;99718.98;;;22.62;54.68
76827;BME280;65788;52.284;20.890;2023-07-29T01:56:33;99719.35;;;22.61;54.72
76827;BME280;65788;52.284;20.890;2023-07-29T01:58:59;99721.23;;;22.60;54.69
76827;BME280;65788;52.284;20.890;2023-07-29T02:01:26;99721.90;;;22.60;54.70
76827;BME280;65788;52.284;20.890;2023-07-29T02:03:52;99721.81;;;22.60;54.67
76827;BME280;65788;52.284;20.890;2023-07-29T02:06:22;99725.83;;;22.62;54.63
76827;BME280;65788;52.284;20.890;2023-07-29T02:08:48;99727.12;;;22.62;54.61
76827;BME280;65788;52.284;20.890;2023-07-29T02:11:15;99726.33;;;22.61;54.62
76827;BME280;65788;52.284;20.890;2023-07-29T02:13:42;99729.95;;;22.61;54.64
76827;BME280;65788;52.284;20.890;2023-07-29T02:16:08;99732.77;;;22.60;54.65
76827;BME280;65788;52.284;20.890;2023-07-29T02:18:35;99730.27;;;22.61;54.62
76827;BME280;65788;52.284;20.890;2023-07-29T02:21:02;99732.12;;;22.61;54.63
76827;BME280;65788;52.284;20.890;2023-07-29T02:23:29;99737.17;;;22.60;54.65
76827;BME280;65788;52.284;20.890;2023-07-29T02:25:56;99739.80;;;22.60;54.69
76827;BME280;65788;52.284;20.890;2023-07-29T02:28:22;99740.66;;;22.61;54.63
76827;BME280;65788;52.284;20.890;2023-07-29T02:31:09;99744.59;;;22.60;54.65
76827;BME280;65788;52.284;20.890;2023-07-29T02:33:37;99743.13;;;22.58;54.64
76827;BME280;65788;52.284;20.890;2023-07-29T02:36:04;99743.52;;;22.58;54.64
76827;BME280;65788;52.284;20.890;2023-07-29T02:38:31;99741.76;;;22.60;54.58
76827;BME280;65788;52.284;20.890;2023-07-29T02:40:58;99742.75;;;22.60;54.59
76827;BME280;65788;52.284;20.890;2023-07-29T02:43:25;99740.73;;;22.59;54.54
76827;BME280;65788;52.284;20.890;2023-07-29T02:45:51;99741.13;;;22.58;54.56
76827;BME280;65788;52.284;20.890;2023-07-29T02:48:18;99745.35;;;22.58;54.54
76827;BME280;65788;52.284;20.890;2023-07-29T02:50:44;99745.60;;;22.60;54.46
76827;BME280;65788;52.284;20.890;2023-07-29T02:53:11;99745.73;;;22.61;54.46
76827;BME280;65788;52.284;20.890;2023-07-29T02:55:41;99749.82;;;22.58;54.53
76827;BME280;65788;52.284;20.890;2023-07-29T02:58:07;99751.98;;;22.58;54.53
76827;BME280;65788;52.284;20.890;2023-07-29T03:00:34;99752.16;;;22.58;54.50
76827;BME280;65788;52.284;20.890;2023-07-29T03:03:02;99749.98;;;22.59;54.45
76827;BME280;65788;52.284;20.890;2023-07-29T03:05:28;99751.42;;;22.57;54.50
76827;BME280;65788;52.284;20.890;2023-07-29T03:07:55;99753.38;;;22.56;54.54
76827;BME280;65788;52.284;20.890;2023-07-29T03:10:22;99757.32;;;22.56;54.55
76827;BME280;65788;52.284;20.890;2023-07-29T03:12:49;99759.17;;;22.56;54.55
76827;BME280;65788;52.284;20.890;2023-07-29T03:15:15;99755.81;;;22.56;54.52
76827;BME280;65788;52.284;20.890;2023-07-29T03:17:42;99758.48;;;22.54;54.52
76827;BME280;65788;52.284;20.890;2023-07-29T03:20:09;99758.52;;;22.53;54.54
76827;BME280;65788;52.284;20.890;2023-07-29T03:22:35;99764.27;;;22.53;54.55
76827;BME280;65788;52.284;20.890;2023-07-29T03:25:02;99768.55;;;22.53;54.52
76827;BME280;65788;52.284;20.890;2023-07-29T03:27:29;99772.91;;;22.54;54.54
76827;BME280;65788;52.284;20.890;2023-07-29T03:29:56;99775.25;;;22.54;54.55
76827;BME280;65788;52.284;20.890;2023-07-29T03:32:23;99775.00;;;22.52;54.58
76827;BME280;65788;52.284;20.890;2023-07-29T03:34:50;99774.08;;;22.53;54.53
76827;BME280;65788;52.284;20.890;2023-07-29T03:37:16;99779.59;;;22.53;54.53
76827;BME280;65788;52.284;20.890;2023-07-29T03:39:43;99777.59;;;22.53;54.51
76827;BME280;65788;52.284;20.890;2023-07-29T03:42:10;99781.43;;;22.53;54.50
76827;BME280;65788;52.284;20.890;2023-07-29T03:44:36;99781.77;;;22.53;54.44
76827;BME280;65788;52.284;20.890;2023-07-29T03:47:06;99786.03;;;22.51;54.49
76827;BME280;65788;52.284;20.890;2023-07-29T03:49:32;99791.11;;;22.51;54.50
76827;BME280;65788;52.284;20.890;2023-07-29T03:51:59;99790.27;;;22.51;54.48
76827;BME280;65788;52.284;20.890;2023-07-29T03:54:26;99796.86;;;22.52;54.44
76827;BME280;65788;52.284;20.890;2023-07-29T03:56:52;99794.67;;;22.50;54.48
76827;BME280;65788;52.284;20.890;2023-07-29T03:59:19;99790.67;;;22.52;54.42
76827;BME280;65788;52.284;20.890;2023-07-29T04:01:46;99792.66;;;22.51;54.45
76827;BME280;65788;52.284;20.890;2023-07-29T04:04:13;99793.90;;;22.52;54.44
76827;BME280;65788;52.284;20.890;2023-07-29T04:06:39;99796.38;;;22.50;54.47
76827;BME280;65788;52.284;20.890;2023-07-29T04:09:06;99794.63;;;22.52;54.40
76827;BME280;65788;52.284;20.890;2023-07-29T04:11:32;99793.84;;;22.51;54.42
76827;BME280;65788;52.284;20.890;2023-07-29T04:13:59;99795.48;;;22.52;54.38
76827;BME280;65788;52.284;20.890;2023-07-29T04:16:26;99796.42;;;22.52;54.37
76827;BME280;65788;52.284;20.890;2023-07-29T04:18:53;99798.18;;;22.50;54.37
76827;BME280;65788;52.284;20.890;2023-07-29T04:21:20;99800.21;;;22.52;54.35
76827;BME280;65788;52.284;20.890;2023-07-29T04:23:46;99801.31;;;22.52;54.34
76827;BME280;65788;52.284;20.890;2023-07-29T04:26:13;99805.77;;;22.51;54.36
76827;BME280;65788;52.284;20.890;2023-07-29T04:28:39;99808.39;;;22.51;54.35
76827;BME280;65788;52.284;20.890;2023-07-29T04:31:06;99814.46;;;22.51;54.35
76827;BME280;65788;52.284;20.890;2023-07-29T04:33:33;99820.55;;;22.51;54.34
76827;BME280;65788;52.284;20.890;2023-07-29T04:36:00;99821.45;;;22.51;54.34
76827;BME280;65788;52.284;20.890;2023-07-29T04:38:31;99828.55;;;22.49;54.38
76827;BME280;65788;52.284;20.890;2023-07-29T04:40:59;99832.02;;;22.50;54.34
76827;BME280;65788;52.284;20.890;2023-07-29T04:43:31;99830.70;;;22.51;54.26
76827;BME280;65788;52.284;20.890;2023-07-29T04:45:58;99834.89;;;22.51;54.30
76827;BME280;65788;52.284;20.890;2023-07-29T04:48:25;99837.13;;;22.52;54.26
76827;BME280;65788;52.284;20.890;2023-07-29T04:50:52;99839.86;;;22.52;54.28
76827;BME280;65788;52.284;20.890;2023-07-29T04:53:18;99844.31;;;22.51;54.31
76827;BME280;65788;52.284;20.890;2023-07-29T04:55:45;99844.35;;;22.50;54.33
76827;BME280;65788;52.284;20.890;2023-07-29T04:58:12;99842.20;;;22.50;54.33
76827;BME280;65788;52.284;20.890;2023-07-29T05:00:39;99844.26;;;22.52;54.31
76827;BME280;65788;52.284;20.890;2023-07-29T05:03:05;99852.17;;;22.52;54.29
76827;BME280;65788;52.284;20.890;2023-07-29T05:05:33;99858.62;;;22.50;54.42
76827;BME280;65788;52.284;20.890;2023-07-29T05:07:59;99859.92;;;22.51;54.31
76827;BME280;65788;52.284;20.890;2023-07-29T05:10:26;99862.86;;;22.53;54.29
76827;BME280;65788;52.284;20.890;2023-07-29T05:12:53;99860.86;;;22.51;54.34
76827;BME280;65788;52.284;20.890;2023-07-29T05:15:19;99858.52;;;22.53;54.33
76827;BME280;65788;52.284;20.890;2023-07-29T05:17:46;99861.17;;;22.53;54.32
76827;BME280;65788;52.284;20.890;2023-07-29T05:20:13;99862.19;;;22.53;54.28
76827;BME280;65788;52.284;20.890;2023-07-29T05:22:39;99861.98;;;22.55;54.24
76827;BME280;65788;52.284;20.890;2023-07-29T05:25:07;99861.14;;;22.54;54.27
76827;BME280;65788;52.284;20.890;2023-07-29T05:27:34;99861.27;;;22.55;54.25
76827;BME280;65788;52.284;20.890;2023-07-29T05:30:00;99861.56;;;22.56;54.21
76827;BME280;65788;52.284;20.890;2023-07-29T05:32:27;99860.98;;;22.55;54.23
76827;BME280;65788;52.284;20.890;2023-07-29T05:34:53;99862.20;;;22.54;54.23
76827;BME280;65788;52.284;20.890;2023-07-29T05:37:20;99860.38;;;22.55;54.20
76827;BME280;65788;52.284;20.890;2023-07-29T05:39:47;99859.30;;;22.54;54.20
76827;BME280;65788;52.284;20.890;2023-07-29T05:42:14;99859.21;;;22.56;54.16
76827;BME280;65788;52.284;20.890;2023-07-29T05:44:40;99859.55;;;22.56;54.14
76827;BME280;65788;52.284;20.890;2023-07-29T05:47:07;99861.79;;;22.57;54.12
76827;BME280;65788;52.284;20.890;2023-07-29T05:49:33;99862.17;;;22.56;54.13
76827;BME280;65788;52.284;20.890;2023-07-29T05:52:01;99863.80;;;22.57;54.10
76827;BME280;65788;52.284;20.890;2023-07-29T05:54:27;99864.35;;;22.57;54.09
76827;BME280;65788;52.284;20.890;2023-07-29T05:56:54;99863.69;;;22.58;54.05
76827;BME280;65788;52.284;20.890;2023-07-29T05:59:21;99865.34;;;22.59;54.00
76827;BME280;65788;52.284;20.890;2023-07-29T06:01:48;99870.00;;;22.58;53.99
76827;BME280;65788;52.284;20.890;2023-07-29T06:04:14;99875.96;;;22.58;54.01
76827;BME280;65788;52.284;20.890;2023-07-29T06:06:41;99877.21;;;22.59;53.94
76827;BME280;65788;52.284;20.890;2023-07-29T06:09:07;99886.26;;;22.60;53.92
76827;BME280;65788;52.284;20.890;2023-07-29T06:11:34;99886.65;;;22.61;53.87
76827;BME280;65788;52.284;20.890;2023-07-29T06:14:01;99894.23;;;22.61;53.87
76827;BME280;65788;52.284;20.890;2023-07-29T06:16:27;99899.20;;;22.60;53.89
76827;BME280;65788;52.284;20.890;2023-07-29T06:18:54;99898.20;;;22.61;53.87
76827;BME280;65788;52.284;20.890;2023-07-29T06:21:20;99897.92;;;22.60;53.89
76827;BME280;65788;52.284;20.890;2023-07-29T06:23:47;99898.88;;;22.61;53.84
76827;BME280;65788;52.284;20.890;2023-07-29T06:26:14;99902.08;;;22.62;53.85
76827;BME280;65788;52.284;20.890;2023-07-29T06:28:41;99904.67;;;22.64;53.79
76827;BME280;65788;52.284;20.890;2023-07-29T06:31:07;99906.88;;;22.63;53.83
76827;BME280;65788;52.284;20.890;2023-07-29T06:33:34;99915.33;;;22.64;53.78
76827;BME280;65788;52.284;20.890;2023-07-29T06:36:01;99916.23;;;22.64;53.77
76827;BME280;65788;52.284;20.890;2023-07-29T06:38:28;99919.61;;;22.64;53.87
76827;BME280;65788;52.284;20.890;2023-07-29T06:40:54;99924.38;;;22.65;53.80
76827;BME280;65788;52.284;20.890;2023-07-29T06:43:21;99928.30;;;22.63;53.86
76827;BME280;65788;52.284;20.890;2023-07-29T06:45:47;99926.81;;;22.64;53.82
76827;BME280;65788;52.284;20.890;2023-07-29T06:48:14;99926.52;;;22.63;53.81
76827;BME280;65788;52.284;20.890;2023-07-29T06:50:41;99925.40;;;22.67;53.75
76827;BME280;65788;52.284;20.890;2023-07-29T06:53:08;99925.34;;;22.66;53.79
76827;BME280;65788;52.284;20.890;2023-07-29T06:55:35;99924.33;;;22.65;53.82
76827;BME280;65788;52.284;20.890;2023-07-29T06:58:02;99926.83;;;22.65;53.85
76827;BME280;65788;52.284;20.890;2023-07-29T07:00:29;99924.73;;;22.67;53.83
76827;BME280;65788;52.284;20.890;2023-07-29T07:02:55;99920.35;;;22.68;53.80
76827;BME280;65788;52.284;20.890;2023-07-29T07:05:22;99924.55;;;22.69;53.76
76827;BME280;65788;52.284;20.890;2023-07-29T07:07:49;99928.29;;;22.69;53.73
76827;BME280;65788;52.284;20.890;2023-07-29T07:10:15;99933.86;;;22.69;53.77
76827;BME280;65788;52.284;20.890;2023-07-29T07:12:42;99929.86;;;22.70;53.69
76827;BME280;65788;52.284;20.890;2023-07-29T07:15:09;99921.52;;;22.69;53.73
76827;BME280;65788;52.284;20.890;2023-07-29T07:17:36;99923.86;;;22.72;53.68
76827;BME280;65788;52.284;20.890;2023-07-29T07:20:03;99920.02;;;22.72;53.66
76827;BME280;65788;52.284;20.890;2023-07-29T07:22:30;99916.57;;;22.73;53.65
76827;BME280;65788;52.284;20.890;2023-07-29T07:24:56;99916.36;;;22.74;53.68
76827;BME280;65788;52.284;20.890;2023-07-29T07:27:23;99914.98;;;22.74;53.64
76827;BME280;65788;52.284;20.890;2023-07-29T07:29:50;99918.30;;;22.74;53.63
76827;BME280;65788;52.284;20.890;2023-07-29T07:32:16;99922.52;;;22.77;53.62
76827;BME280;65788;52.284;20.890;2023-07-29T07:34:43;99914.30;;;22.74;53.66
76827;BME280;65788;52.284;20.890;2023-07-29T07:37:10;99911.73;;;22.74;53.64
76827;BME280;65788;52.284;20.890;2023-07-29T07:39:36;99913.33;;;22.77;53.59
76827;BME280;65788;52.284;20.890;2023-07-29T07:42:04;99913.85;;;22.78;53.61
76827;BME280;65788;52.284;20.890;2023-07-29T07:44:30;99911.33;;;22.78;53.66
76827;BME280;65788;52.284;20.890;2023-07-29T07:46:57;99911.69;;;22.79;53.65
76827;BME280;65788;52.284;20.890;2023-07-29T07:49:24;99915.89;;;22.81;53.59
76827;BME280;65788;52.284;20.890;2023-07-29T07:51:51;99917.65;;;22.82;53.56
76827;BME280;65788;52.284;20.890;2023-07-29T07:54:17;99916.23;;;22.84;53.54
76827;BME280;65788;52.284;20.890;2023-07-29T07:56:44;99913.25;;;22.83;53.63
76827;BME280;65788;52.284;20.890;2023-07-29T07:59:11;99916.48;;;22.84;53.68
76827;BME280;65788;52.284;20.890;2023-07-29T08:01:38;99915.05;;;22.84;53.64
76827;BME280;65788;52.284;20.890;2023-07-29T08:04:05;99910.48;;;22.84;53.59
76827;BME280;65788;52.284;20.890;2023-07-29T08:06:32;99914.28;;;22.86;53.52
76827;BME280;65788;52.284;20.890;2023-07-29T08:08:59;99911.27;;;22.86;53.59
76827;BME280;65788;52.284;20.890;2023-07-29T08:11:26;99915.06;;;22.89;53.59
76827;BME280;65788;52.284;20.890;2023-07-29T08:13:52;99907.91;;;22.88;53.52
76827;BME280;65788;52.284;20.890;2023-07-29T08:16:19;99906.55;;;22.87;53.49
76827;BME280;65788;52.284;20.890;2023-07-29T08:18:46;99905.28;;;22.88;53.56
76827;BME280;65788;52.284;20.890;2023-07-29T08:21:13;99901.52;;;22.90;53.44
76827;BME280;65788;52.284;20.890;2023-07-29T08:23:40;99905.08;;;22.89;53.49
76827;BME280;65788;52.284;20.890;2023-07-29T08:26:07;99899.05;;;22.90;53.50
76827;BME280;65788;52.284;20.890;2023-07-29T08:28:36;99900.52;;;22.89;53.51
76827;BME280;65788;52.284;20.890;2023-07-29T08:31:04;99899.66;;;22.90;53.54
76827;BME280;65788;52.284;20.890;2023-07-29T08:33:31;99899.64;;;22.91;53.39
76827;BME280;65788;52.284;20.890;2023-07-29T08:36:00;99895.12;;;22.91;53.38
76827;BME280;65788;52.284;20.890;2023-07-29T08:38:27;99896.26;;;22.93;53.34
76827;BME280;65788;52.284;20.890;2023-07-29T08:41:19;99891.24;;;22.94;53.32
76827;BME280;65788;52.284;20.890;2023-07-29T08:44:09;99890.90;;;22.94;53.47
76827;BME280;65788;52.284;20.890;2023-07-29T08:46:37;99887.38;;;22.96;53.38
76827;BME280;65788;52.284;20.890;2023-07-29T08:49:05;99889.11;;;22.97;53.23
76827;BME280;65788;52.284;20.890;2023-07-29T08:51:33;99892.85;;;22.97;53.20
76827;BME280;65788;52.284;20.890;2023-07-29T08:54:01;99893.92;;;22.98;53.21
76827;BME280;65788;52.284;20.890;2023-07-29T08:56:28;99892.42;;;22.98;53.21
76827;BME280;65788;52.284;20.890;2023-07-29T08:58:57;99896.91;;;23.00;53.13
76827;BME280;65788;52.284;20.890;2023-07-29T09:01:24;99893.51;;;23.00;53.17
76827;BME280;65788;52.284;20.890;2023-07-29T09:03:51;99895.63;;;23.00;53.17
76827;BME280;65788;52.284;20.890;2023-07-29T09:06:18;99892.06;;;23.02;53.12
76827;BME280;65788;52.284;20.890;2023-07-29T09:08:46;99891.02;;;23.02;53.26
76827;BME280;65788;52.284;20.890;2023-07-29T09:11:14;99889.40;;;23.03;53.27
76827;BME280;65788;52.284;20.890;2023-07-29T09:13:43;99887.85;;;23.02;53.16
76827;BME280;65788;52.284;20.890;2023-07-29T09:16:10;99888.43;;;23.05;53.17
76827;BME280;65788;52.284;20.890;2023-07-29T09:18:37;99888.00;;;23.06;53.22
76827;BME280;65788;52.284;20.890;2023-07-29T09:21:04;99885.61;;;23.07;53.26
76827;BME280;65788;52.284;20.890;2023-07-29T09:23:41;99884.98;;;23.07;53.19
76827;BME280;65788;52.284;20.890;2023-07-29T09:26:08;99885.06;;;23.08;53.19
76827;BME280;65788;52.284;20.890;2023-07-29T09:28:39;99882.69;;;23.10;53.19
76827;BME280;65788;52.284;20.890;2023-07-29T09:31:06;99878.46;;;23.11;53.20
76827;BME280;65788;52.284;20.890;2023-07-29T09:33:34;99879.59;;;23.12;53.15
76827;BME280;65788;52.284;20.890;2023-07-29T09:36:09;99880.23;;;23.14;53.14
76827;BME280;65788;52.284;20.890;2023-07-29T09:38:37;99875.90;;;23.14;53.15
76827;BME280;65788;52.284;20.890;2023-07-29T09:41:04;99881.74;;;23.14;53.16
76827;BME280;65788;52.284;20.890;2023-07-29T09:43:32;99881.60;;;23.15;53.23
76827;BME280;65788;52.284;20.890;2023-07-29T09:46:04;99881.45;;;23.15;53.20
76827;BME280;65788;52.284;20.890;2023-07-29T09:48:35;99882.52;;;23.18;53.16
76827;BME280;65788;52.284;20.890;2023-07-29T09:51:13;99880.52;;;23.17;53.22
76827;BME280;65788;52.284;20.890;2023-07-29T09:53:44;99877.84;;;23.17;53.22
76827;BME280;65788;52.284;20.890;2023-07-29T09:56:12;99876.95;;;23.18;53.23
76827;BME280;65788;52.284;20.890;2023-07-29T09:58:39;99874.23;;;23.19;53.21
76827;BME280;65788;52.284;20.890;2023-07-29T10:01:07;99869.79;;;23.20;53.20
76827;BME280;65788;52.284;20.890;2023-07-29T10:03:34;99865.20;;;23.20;53.25
76827;BME280;65788;52.284;20.890;2023-07-29T10:06:03;99860.42;;;23.22;53.25
76827;BME280;65788;52.284;20.890;2023-07-29T10:08:30;99858.31;;;23.23;53.22
76827;BME280;65788;52.284;20.890;2023-07-29T10:10:59;99857.16;;;23.26;53.22
76827;BME280;65788;52.284;20.890;2023-07-29T10:13:27;99859.98;;;23.27;53.18
76827;BME280;65788;52.284;20.890;2023-07-29T10:15:54;99860.33;;;23.27;53.26
76827;BME280;65788;52.284;20.890;2023-07-29T10:18:22;99866.44;;;23.26;53.29
76827;BME280;65788;52.284;20.890;2023-07-29T10:20:51;99862.52;;;23.28;53.25
76827;BME280;65788;52.284;20.890;2023-07-29T10:23:18;99861.70;;;23.31;53.20
76827;BME280;65788;52.284;20.890;2023-07-29T10:26:02;99859.48;;;23.33;53.19
76827;BME280;65788;52.284;20.890;2023-07-29T10:28:32;99854.58;;;23.33;53.29
76827;BME280;65788;52.284;20.890;2023-07-29T10:31:03;99856.05;;;23.35;53.34
76827;BME280;65788;52.284;20.890;2023-07-29T10:33:32;99851.48;;;23.36;53.35
76827;BME280;65788;52.284;20.890;2023-07-29T10:36:01;99855.06;;;23.37;53.47
76827;BME280;65788;52.284;20.890;2023-07-29T10:38:28;99853.86;;;23.38;53.49
76827;BME280;65788;52.284;20.890;2023-07-29T10:40:57;99856.29;;;23.41;53.28
76827;BME280;65788;52.284;20.890;2023-07-29T10:43:28;99847.26;;;23.43;53.26
76827;BME280;65788;52.284;20.890;2023-07-29T10:46:16;99850.15;;;23.43;53.38
76827;BME280;65788;52.284;20.890;2023-07-29T10:48:54;99849.31;;;23.43;53.31
76827;BME280;65788;52.284;20.890;2023-07-29T10:53:56;99842.20;;;23.45;53.28
76827;BME280;65788;52.284;20.890;2023-07-29T10:56:34;99839.96;;;23.46;53.30
76827;BME280;65788;52.284;20.890;2023-07-29T10:59:31;99840.32;;;23.47;53.38
76827;BME280;65788;52.284;20.890;2023-07-29T11:02:00;99842.74;;;23.50;53.23
76827;BME280;65788;52.284;20.890;2023-07-29T11:04:29;99845.54;;;23.51;53.16
76827;BME280;65788;52.284;20.890;2023-07-29T11:12:40;99837.19;;;23.53;52.99
76827;BME280;65788;52.284;20.890;2023-07-29T11:15:14;99836.21;;;23.55;53.03
76827;BME280;65788;52.284;20.890;2023-07-29T11:17:43;99835.44;;;23.57;52.99
76827;BME280;65788;52.284;20.890;2023-07-29T11:20:11;99831.59;;;23.58;52.95
76827;BME280;65788;52.284;20.890;2023-07-29T11:22:38;99829.59;;;23.59;53.01
76827;BME280;65788;52.284;20.890;2023-07-29T11:25:08;99822.55;;;23.60;53.02
76827;BME280;65788;52.284;20.890;2023-07-29T11:27:36;99815.59;;;23.60;53.03
76827;BME280;65788;52.284;20.890;2023-07-29T11:30:06;99811.98;;;23.62;52.95
76827;BME280;65788;52.284;20.890;2023-07-29T11:32:34;99805.90;;;23.64;52.86
76827;BME280;65788;52.284;20.890;2023-07-29T11:35:06;99798.52;;;23.64;52.90
76827;BME280;65788;52.284;20.890;2023-07-29T11:37:34;99800.05;;;23.66;52.88
76827;BME280;65788;52.284;20.890;2023-07-29T11:40:01;99797.65;;;23.66;52.83
76827;BME280;65788;52.284;20.890;2023-07-29T11:42:31;99794.47;;;23.67;52.85
76827;BME280;65788;52.284;20.890;2023-07-29T11:44:59;99792.08;;;23.68;52.78
76827;BME280;65788;52.284;20.890;2023-07-29T11:47:26;99788.45;;;23.68;52.90
76827;BME280;65788;52.284;20.890;2023-07-29T11:49:53;99785.56;;;23.70;52.82
76827;BME280;65788;52.284;20.890;2023-07-29T11:52:20;99776.30;;;23.72;52.64
76827;BME280;65788;52.284;20.890;2023-07-29T11:54:48;99774.67;;;23.71;52.91
76827;BME280;65788;52.284;20.890;2023-07-29T11:57:16;99771.88;;;23.70;53.04
76827;BME280;65788;52.284;20.890;2023-07-29T11:59:43;99774.59;;;23.73;52.88
76827;BME280;65788;52.284;20.890;2023-07-29T12:02:12;99771.65;;;23.76;52.70
76827;BME280;65788;52.284;20.890;2023-07-29T12:04:40;99769.77;;;23.79;52.66
76827;BME280;65788;52.284;20.890;2023-07-29T12:07:08;99766.02;;;23.79;52.73
76827;BME280;65788;52.284;20.890;2023-07-29T12:09:35;99764.41;;;23.81;52.77
76827;BME280;65788;52.284;20.890;2023-07-29T12:12:03;99766.10;;;23.82;52.78
76827;BME280;65788;52.284;20.890;2023-07-29T12:14:31;99761.59;;;23.83;52.81
76827;BME280;65788;52.284;20.890;2023-07-29T12:17:06;99764.61;;;23.85;52.85
76827;BME280;65788;52.284;20.890;2023-07-29T12:19:35;99759.70;;;23.86;52.83
76827;BME280;65788;52.284;20.890;2023-07-29T12:22:04;99754.90;;;23.87;52.96
76827;BME280;65788;52.284;20.890;2023-07-29T12:24:33;99752.02;;;23.88;52.94
76827;BME280;65788;52.284;20.890;2023-07-29T12:27:01;99755.39;;;23.89;53.01
76827;BME280;65788;52.284;20.890;2023-07-29T12:29:28;99752.45;;;23.89;53.09
76827;BME280;65788;52.284;20.890;2023-07-29T12:32:02;99750.22;;;23.90;53.04
76827;BME280;65788;52.284;20.890;2023-07-29T12:34:30;99746.60;;;23.92;53.04
76827;BME280;65788;52.284;20.890;2023-07-29T12:36:58;99744.98;;;23.94;53.07
76827;BME280;65788;52.284;20.890;2023-07-29T12:39:30;99742.75;;;23.95;53.07
76827;BME280;65788;52.284;20.890;2023-07-29T12:41:59;99740.36;;;23.96;53.21
76827;BME280;65788;52.284;20.890;2023-07-29T12:44:35;99735.89;;;23.95;53.82
76827;BME280;65788;52.284;20.890;2023-07-29T12:47:03;99735.59;;;23.94;54.00
76827;BME280;65788;52.284;20.890;2023-07-29T12:49:30;99731.03;;;23.97;53.79
76827;BME280;65788;52.284;20.890;2023-07-29T12:51:58;99734.55;;;23.97;54.01
76827;BME280;65788;52.284;20.890;2023-07-29T12:54:26;99734.23;;;24.00;53.83
76827;BME280;65788;52.284;20.890;2023-07-29T12:56:52;99733.25;;;24.04;53.58
76827;BME280;65788;52.284;20.890;2023-07-29T12:59:19;99730.60;;;24.07;53.54
76827;BME280;65788;52.284;20.890;2023-07-29T13:01:46;99727.36;;;24.10;54.03
76827;BME280;65788;52.284;20.890;2023-07-29T13:04:13;99727.54;;;24.11;56.57
76827;BME280;65788;52.284;20.890;2023-07-29T13:06:39;99722.61;;;24.09;56.31